Time;durP1;ratioP1;P1;durP2;ratioP2;P2;SDS_P1;SDS_P2;PMS_P1;PMS_P2;Temp;Humidity;BMP_temperature;BMP_pressure;BME280_temperature;BME280_humidity;BME280_pressure;Samples;Min_cycle;Max_cycle;Signal;HPM_P1;HPM_P2
2023/07/08 00:00:27;;;;;;;6.60;3.33;;;;;;;25.92;38.78;101875.94;4998353;28;20053;-31
2023/07/08 00:02:53;;;;;;;5.80;3.17;;;;;;;25.92;38.90;101867.78;4997242;28;20537;-31
2023/07/08 00:05:23;;;;;;;4.22;2.92;;;;;;;25.92;38.84;101862.34;5004959;28;20056;-32
2023/07/08 00:07:50;;;;;;;5.32;3.10;;;;;;;25.92;38.71;101856.09;4999881;28;20453;-31
2023/07/08 00:10:20;;;;;;;5.68;2.97;;;;;;;25.90;38.81;101853.56;5002681;28;20718;-31
2023/07/08 00:12:52;;;;;;;4.85;2.88;;;;;;;25.91;38.90;101854.41;4971714;28;20049;-31
2023/07/08 00:15:25;;;;;;;4.25;2.58;;;;;;;25.89;39.08;101843.72;5039164;28;20053;-31
2023/07/08 00:17:52;;;;;;;4.75;2.90;;;;;;;25.89;38.70;101830.16;5026256;28;20665;-30
2023/07/08 00:20:30;;;;;;;4.97;3.05;;;;;;;25.87;38.91;101837.63;5022617;28;20336;-30
2023/07/08 00:22:57;;;;;;;4.22;2.70;;;;;;;25.87;38.80;101834.91;5017213;28;20064;-31
2023/07/08 00:25:23;;;;;;;3.65;2.58;;;;;;;25.86;39.03;101832.38;5020021;28;20080;-33
2023/07/08 00:27:50;;;;;;;3.90;3.03;;;;;;;25.84;38.85;101835.25;5024401;28;20045;-32
2023/07/08 00:30:25;;;;;;;4.13;2.65;;;;;;;25.83;39.25;101837.13;5024624;28;20042;-31
2023/07/08 00:32:56;;;;;;;4.57;3.33;;;;;;;25.82;39.11;101832.75;4994714;28;20135;-33
2023/07/08 00:35:32;;;;;;;5.05;2.90;;;;;;;25.81;39.07;101825.63;5025383;28;20080;-31
2023/07/08 00:38:01;;;;;;;3.95;2.88;;;;;;;25.81;39.02;101828.34;5018450;28;20664;-32
2023/07/08 00:40:30;;;;;;;4.53;2.83;;;;;;;25.80;39.20;101825.78;5018547;28;20374;-31
2023/07/08 00:43:00;;;;;;;4.38;2.90;;;;;;;25.80;39.21;101823.91;5017447;28;20473;-31
2023/07/08 00:45:27;;;;;;;6.75;2.83;;;;;;;25.79;38.82;101824.94;5019016;28;20053;-32
2023/07/08 00:47:56;;;;;;;3.33;2.80;;;;;;;25.78;39.08;101825.97;5022695;28;20132;-31
2023/07/08 00:50:22;;;;;;;3.92;2.65;;;;;;;25.76;39.02;101825.28;5025133;28;20056;-31
2023/07/08 00:52:49;;;;;;;5.97;2.60;;;;;;;25.76;39.42;101824.44;4993707;28;20092;-31
2023/07/08 00:55:16;;;;;;;4.43;2.58;;;;;;;25.76;39.01;101824.44;5029546;28;20083;-31
2023/07/08 00:57:45;;;;;;;5.03;2.67;;;;;;;25.75;39.46;101820.03;5025248;28;20045;-32
2023/07/08 01:00:16;;;;;;;4.03;2.83;;;;;;;25.74;39.16;101819.19;5017577;28;20147;-31
2023/07/08 01:02:48;;;;;;;3.72;2.42;;;;;;;25.74;39.39;101816.47;5024443;28;20044;-31
2023/07/08 01:05:23;;;;;;;4.07;2.70;;;;;;;25.72;39.01;101807.66;5015808;28;20134;-33
2023/07/08 01:07:57;;;;;;;5.82;2.92;;;;;;;25.72;39.12;101804.94;5011052;28;20448;-30
2023/07/08 01:10:33;;;;;;;5.15;2.92;;;;;;;25.72;39.32;101812.25;5018202;28;20114;-31
2023/07/08 01:13:03;;;;;;;4.82;2.92;;;;;;;25.71;39.45;101800.53;5015648;28;20061;-31
2023/07/08 01:15:41;;;;;;;4.20;2.95;;;;;;;25.71;39.58;101807.84;4995938;28;20426;-31
2023/07/08 01:18:11;;;;;;;3.35;2.40;;;;;;;25.70;39.42;101808.88;5026650;28;20054;-32
2023/07/08 01:20:39;;;;;;;3.88;2.53;;;;;;;25.69;39.36;101810.75;5017142;28;20103;-31
2023/07/08 01:23:05;;;;;;;3.38;2.33;;;;;;;25.68;39.36;101810.91;5024879;28;20376;-31
2023/07/08 01:25:33;;;;;;;5.43;2.75;;;;;;;25.68;39.71;101808.19;5023652;28;20588;-31
2023/07/08 01:28:00;;;;;;;6.25;2.90;;;;;;;25.67;39.41;101807.34;5029383;28;20751;-31
2023/07/08 01:30:29;;;;;;;6.18;3.28;;;;;;;25.66;39.75;101800.25;5028039;28;20385;-31
2023/07/08 01:33:02;;;;;;;4.35;2.88;;;;;;;25.66;39.41;101802.13;5004163;28;20049;-32
2023/07/08 01:35:29;;;;;;;4.03;2.28;;;;;;;25.65;39.57;101794.97;5035373;28;20103;-32
2023/07/08 01:38:05;;;;;;;5.38;2.53;;;;;;;25.63;39.72;101800.59;5030398;28;20119;-32
2023/07/08 01:40:35;;;;;;;3.95;2.65;;;;;;;25.63;39.59;101797.03;5029899;28;20303;-31
2023/07/08 01:43:03;;;;;;;3.38;2.60;;;;;;;25.63;39.95;101797.03;5034635;28;20048;-31
2023/07/08 01:45:40;;;;;;;3.78;2.60;;;;;;;25.60;39.67;101790.94;5031620;28;20349;-31
2023/07/08 01:48:11;;;;;;;4.65;2.70;;;;;;;25.60;39.92;101796.38;5031770;28;20498;-32
2023/07/08 01:50:44;;;;;;;3.15;2.17;;;;;;;25.59;39.45;101794.69;5027169;28;20096;-31
2023/07/08 01:53:15;;;;;;;6.53;3.25;;;;;;;25.58;39.74;101787.56;4997878;28;20707;-31
2023/07/08 01:55:42;;;;;;;3.30;2.50;;;;;;;25.58;39.83;101784.84;5033035;28;20064;-31
2023/07/08 01:58:08;;;;;;;4.07;2.70;;;;;;;25.57;40.00;101783.16;5020869;28;20141;-31
2023/07/08 02:00:35;;;;;;;3.80;2.65;;;;;;;25.56;39.80;101780.63;5022723;28;20053;-32
2023/07/08 02:03:02;;;;;;;3.72;2.33;;;;;;;25.55;39.91;101776.22;5018817;28;20139;-33
2023/07/08 02:05:28;;;;;;;4.20;2.70;;;;;;;25.53;39.81;101771.00;5017050;28;20136;-31
2023/07/08 02:07:56;;;;;;;4.18;3.00;;;;;;;25.54;39.69;101775.38;5017154;28;20334;-32
2023/07/08 02:10:22;;;;;;;5.00;2.78;;;;;;;25.52;39.61;101772.00;5015086;28;20081;-32
2023/07/08 02:12:49;;;;;;;4.95;2.78;;;;;;;25.51;40.05;101770.31;5017684;28;20080;-33
2023/07/08 02:15:16;;;;;;;3.85;2.33;;;;;;;25.51;40.24;101764.03;4997132;28;20060;-31
2023/07/08 02:17:42;;;;;;;3.42;2.33;;;;;;;25.50;40.11;101763.19;5025238;28;20149;-32
2023/07/08 02:20:09;;;;;;;4.10;2.30;;;;;;;25.50;39.98;101765.91;5026803;28;20437;-31
2023/07/08 02:22:36;;;;;;;3.33;2.42;;;;;;;25.50;40.07;101756.94;5022800;28;20061;-31
2023/07/08 02:25:03;;;;;;;4.47;2.55;;;;;;;25.48;40.27;101759.81;5026962;28;20065;-32
2023/07/08 02:27:30;;;;;;;4.00;2.70;;;;;;;25.48;39.90;101757.09;5020401;28;20058;-31
2023/07/08 02:29:56;;;;;;;5.35;3.33;;;;;;;25.46;40.17;101755.59;5028619;28;20099;-31
2023/07/08 02:32:23;;;;;;;5.45;2.72;;;;;;;25.46;39.96;101756.44;5027552;28;20048;-32
2023/07/08 02:34:51;;;;;;;4.43;2.63;;;;;;;25.46;40.14;101747.47;4997461;28;20056;-31
2023/07/08 02:37:18;;;;;;;3.42;2.50;;;;;;;25.44;40.24;101742.19;5021914;28;20339;-31
2023/07/08 02:39:45;;;;;;;4.15;2.65;;;;;;;25.43;40.29;101748.66;5024764;28;20052;-32
2023/07/08 02:42:11;;;;;;;4.65;3.10;;;;;;;25.42;40.16;101744.25;5021190;28;20100;-31
2023/07/08 02:44:38;;;;;;;5.20;2.75;;;;;;;25.42;40.19;101746.13;5022125;28;20681;-31
2023/07/08 02:47:04;;;;;;;4.65;2.92;;;;;;;25.41;40.09;101737.16;5016593;28;20053;-31
2023/07/08 02:49:31;;;;;;;3.88;2.70;;;;;;;25.40;40.37;101738.16;5021270;28;20635;-31
2023/07/08 02:51:58;;;;;;;4.85;2.75;;;;;;;25.39;40.51;101728.31;5029343;28;20073;-30
2023/07/08 02:54:24;;;;;;;3.42;2.20;;;;;;;25.39;40.26;101731.03;4996789;28;20136;-31
2023/07/08 02:56:51;;;;;;;4.82;2.80;;;;;;;25.38;40.53;101731.22;5030509;28;20127;-32
2023/07/08 02:59:17;;;;;;;5.72;2.58;;;;;;;25.38;40.61;101733.94;5024368;28;20057;-31
2023/07/08 03:01:46;;;;;;;4.90;2.90;;;;;;;25.38;40.77;101733.94;5028893;28;20445;-31
2023/07/08 03:04:13;;;;;;;2.78;2.00;;;;;;;25.36;40.62;101736.81;5025558;28;20049;-31
2023/07/08 03:06:41;;;;;;;3.95;2.50;;;;;;;25.35;40.32;101727.84;5018849;28;20133;-31
2023/07/08 03:09:08;;;;;;;4.05;2.60;;;;;;;25.35;40.65;101727.00;5023306;28;20136;-31
2023/07/08 03:11:35;;;;;;;5.38;2.70;;;;;;;25.33;40.61;101729.91;5025010;28;20483;-32
2023/07/08 03:14:02;;;;;;;5.38;2.53;;;;;;;25.32;40.92;101736.34;4996666;28;20080;-31
2023/07/08 03:16:29;;;;;;;3.67;2.50;;;;;;;25.32;40.33;101735.50;5025711;28;20048;-32
2023/07/08 03:18:56;;;;;;;3.95;2.60;;;;;;;25.33;40.48;101739.91;5024673;28;20527;-31
2023/07/08 03:21:23;;;;;;;3.22;2.30;;;;;;;25.32;40.43;101740.91;5030107;28;20049;-31
2023/07/08 03:23:51;;;;;;;4.70;2.55;;;;;;;25.31;40.56;101741.97;5024397;28;20053;-31
2023/07/08 03:26:21;;;;;;;3.58;2.38;;;;;;;25.30;40.55;101743.00;5028109;28;20057;-31
2023/07/08 03:28:48;;;;;;;3.55;2.50;;;;;;;25.29;40.67;101744.84;5021276;28;20044;-30
2023/07/08 03:31:15;;;;;;;2.58;2.13;;;;;;;25.29;40.49;101747.56;5026018;28;20049;-31
2023/07/08 03:33:41;;;;;;;3.85;2.40;;;;;;;25.28;40.71;101737.72;4993272;28;20146;-31
2023/07/08 03:36:33;;;;;;;3.88;2.15;;;;;;;25.26;40.80;101731.66;5047038;28;20163;-31
2023/07/08 03:39:01;;;;;;;3.67;2.22;;;;;;;25.28;40.66;101734.16;5035185;28;20134;-32
2023/07/08 03:41:27;;;;;;;3.53;2.53;;;;;;;25.27;40.55;101737.91;5032115;28;20044;-31
2023/07/08 03:43:54;;;;;;;3.90;2.47;;;;;;;25.25;40.48;101735.38;5015396;28;20073;-31
2023/07/08 03:46:21;;;;;;;4.07;2.60;;;;;;;25.25;41.05;101731.84;5016443;28;20114;-32
2023/07/08 03:48:48;;;;;;;3.97;2.55;;;;;;;25.24;41.06;101738.25;5025331;28;20099;-32
2023/07/08 03:51:24;;;;;;;3.45;2.67;;;;;;;25.23;41.53;101737.44;5024994;28;20048;-32
2023/07/08 03:53:51;;;;;;;3.72;2.45;;;;;;;25.24;41.23;101738.25;4986564;28;20091;-31
2023/07/08 03:56:18;;;;;;;3.63;2.67;;;;;;;25.23;41.28;101744.72;5027011;28;20081;-31
2023/07/08 03:58:45;;;;;;;4.28;2.70;;;;;;;25.23;40.87;101742.00;5019581;28;20045;-32
2023/07/08 04:01:20;;;;;;;4.38;2.70;;;;;;;25.19;40.96;101738.81;5016823;28;20100;-32
2023/07/08 04:03:47;;;;;;;3.38;2.22;;;;;;;25.21;41.08;101741.38;5024192;28;20061;-32
2023/07/08 04:06:14;;;;;;;3.80;2.50;;;;;;;25.21;41.32;101746.78;5025862;28;20061;-31
2023/07/08 04:08:40;;;;;;;5.32;2.50;;;;;;;25.20;41.41;101750.50;5021143;28;20135;-31
2023/07/08 04:11:11;;;;;;;4.80;2.30;;;;;;;25.19;40.90;101743.41;5022306;28;20049;-31
2023/07/08 04:13:40;;;;;;;5.93;2.53;;;;;;;25.17;41.17;101750.88;4999645;28;20106;-34
2023/07/08 04:16:09;;;;;;;4.60;2.22;;;;;;;25.18;40.91;101739.00;5027941;28;20072;-31
2023/07/08 04:18:36;;;;;;;2.83;1.92;;;;;;;25.17;41.43;101749.00;5025280;28;20068;-32
2023/07/08 04:21:03;;;;;;;3.67;2.22;;;;;;;25.16;41.10;101746.47;5023430;28;20425;-31
2023/07/08 04:23:32;;;;;;;3.50;2.35;;;;;;;25.17;41.05;101745.47;5020081;28;20144;-32
2023/07/08 04:25:59;;;;;;;3.75;2.13;;;;;;;25.16;41.31;101752.72;5023093;28;20129;-32
2023/07/08 04:28:26;;;;;;;4.38;2.30;;;;;;;25.15;41.08;101747.50;5022369;28;20129;-31
2023/07/08 04:30:53;;;;;;;4.25;2.33;;;;;;;25.15;41.19;101750.19;5017693;28;20363;-32
2023/07/08 04:33:19;;;;;;;4.45;2.30;;;;;;;25.14;41.51;101754.78;5022373;28;20409;-31
2023/07/08 04:35:46;;;;;;;3.47;1.92;;;;;;;25.15;40.98;101751.03;4989681;28;20110;-31
2023/07/08 04:38:21;;;;;;;4.20;2.42;;;;;;;25.14;41.41;101749.38;5028947;28;20466;-32
2023/07/08 04:40:49;;;;;;;3.65;2.40;;;;;;;25.15;41.40;101742.06;5019055;28;20060;-31
2023/07/08 04:43:16;;;;;;;3.88;2.13;;;;;;;25.13;41.48;101753.09;5019128;28;20049;-31
2023/07/08 04:45:45;;;;;;;3.33;2.30;;;;;;;25.16;41.46;101751.88;5017682;28;20433;-31
2023/07/08 04:48:14;;;;;;;3.33;2.40;;;;;;;25.15;41.18;101751.03;5017709;28;20130;-31
2023/07/08 04:50:46;;;;;;;4.13;2.05;;;;;;;25.17;41.46;101740.03;5019395;28;20045;-31
2023/07/08 04:53:13;;;;;;;3.30;2.22;;;;;;;25.18;41.13;101739.84;5019690;28;20133;-32
2023/07/08 04:55:52;;;;;;;3.17;2.22;;;;;;;25.19;41.43;101743.41;4980779;28;20057;-32
2023/07/08 04:58:19;;;;;;;3.72;1.98;;;;;;;25.20;41.30;101742.38;5021538;28;20048;-32
2023/07/08 05:00:46;;;;;;;2.85;1.75;;;;;;;25.20;41.46;101740.50;5020749;28;20053;-31
2023/07/08 05:03:13;;;;;;;2.50;2.00;;;;;;;25.21;41.48;101739.50;5014585;28;20188;-31
2023/07/08 05:05:40;;;;;;;4.55;2.13;;;;;;;25.22;41.46;101740.31;5022938;28;20076;-31
2023/07/08 05:08:08;;;;;;;3.60;1.90;;;;;;;25.23;41.28;101748.28;5028573;28;20167;-31
2023/07/08 05:10:34;;;;;;;3.30;2.10;;;;;;;25.24;41.16;101738.25;5026089;28;20327;-31
2023/07/08 05:13:01;;;;;;;2.50;2.10;;;;;;;25.25;41.25;101740.81;5023629;28;20511;-31
2023/07/08 05:15:28;;;;;;;5.32;2.40;;;;;;;25.26;40.97;101747.94;4981755;28;20065;-32
2023/07/08 05:17:55;;;;;;;4.15;2.47;;;;;;;25.28;41.08;101742.31;5026888;28;20145;-31
2023/07/08 05:20:22;;;;;;;2.92;1.60;;;;;;;25.29;41.14;101739.44;5019775;28;20119;-31
2023/07/08 05:22:49;;;;;;;3.35;2.20;;;;;;;25.31;41.52;101750.09;5019749;28;20048;-32
2023/07/08 05:25:15;;;;;;;2.78;1.73;;;;;;;25.32;41.12;101740.91;5030178;28;20080;-32
2023/07/08 05:27:42;;;;;;;3.45;2.20;;;;;;;25.33;41.50;101743.47;5028847;28;20094;-31
2023/07/08 05:30:14;;;;;;;3.78;2.10;;;;;;;25.33;41.39;101743.47;5032741;28;20424;-31
2023/07/08 05:32:41;;;;;;;4.63;2.10;;;;;;;25.34;41.52;101739.72;5031435;28;20256;-31
2023/07/08 05:35:07;;;;;;;2.40;1.73;;;;;;;25.36;41.43;101743.09;5002988;28;20072;-31
2023/07/08 05:37:37;;;;;;;2.33;2.08;;;;;;;25.39;41.11;101746.47;5042256;28;20110;-32
2023/07/08 05:40:04;;;;;;;2.83;2.03;;;;;;;25.39;41.22;101746.47;5031067;28;20053;-32
2023/07/08 05:42:31;;;;;;;4.82;2.15;;;;;;;25.39;41.51;101750.03;5017548;28;20045;-31
2023/07/08 05:44:58;;;;;;;3.42;2.00;;;;;;;25.41;41.67;101749.84;5030457;28;20049;-32
2023/07/08 05:47:24;;;;;;;3.08;2.28;;;;;;;25.41;41.10;101744.41;5036427;28;20080;-31
2023/07/08 05:49:51;;;;;;;2.78;1.90;;;;;;;25.42;41.14;101744.25;5031837;28;20049;-31
2023/07/08 05:52:18;;;;;;;3.60;2.00;;;;;;;25.43;41.44;101735.06;5027177;28;20045;-31
2023/07/08 05:54:44;;;;;;;5.03;2.20;;;;;;;25.44;41.39;101734.03;4996598;28;20061;-32
2023/07/08 05:57:11;;;;;;;3.72;2.10;;;;;;;25.43;41.30;101735.06;5037300;28;20527;-32
2023/07/08 05:59:43;;;;;;;2.40;2.08;;;;;;;25.45;41.33;101734.88;5025956;28;20099;-32
2023/07/08 06:02:11;;;;;;;4.20;2.30;;;;;;;25.45;41.81;101733.03;5025554;28;20103;-31
2023/07/08 06:04:40;;;;;;;5.07;2.63;;;;;;;25.47;41.83;101736.41;5018014;28;20064;-31
2023/07/08 06:07:07;;;;;;;8.88;3.10;;;;;;;25.47;41.72;101739.13;5017698;28;20053;-31
2023/07/08 06:09:34;;;;;;;14.98;3.92;;;;;;;25.48;41.68;101740.81;5019196;28;20500;-31
2023/07/08 06:12:01;;;;;;;8.00;3.30;;;;;;;25.49;41.64;101745.22;5016982;28;20167;-32
2023/07/08 06:14:28;;;;;;;13.77;4.20;;;;;;;25.49;41.88;101747.09;5020677;28;20053;-31
2023/07/08 06:16:55;;;;;;;9.85;3.83;;;;;;;25.49;42.15;101745.22;4996647;28;20484;-31
2023/07/08 06:19:22;;;;;;;8.30;3.10;;;;;;;25.50;42.31;101746.06;5025747;28;20379;-31
2023/07/08 06:21:48;;;;;;;14.05;3.28;;;;;;;25.51;42.37;101750.47;5026461;28;20045;-32
2023/07/08 06:24:15;;;;;;;8.82;3.00;;;;;;;25.51;42.28;101754.03;5028357;28;20061;-32
2023/07/08 06:26:42;;;;;;;5.50;3.20;;;;;;;25.53;42.29;101756.56;5025959;28;20052;-31
2023/07/08 06:29:08;;;;;;;7.22;3.33;;;;;;;25.52;42.07;101754.84;5023753;28;20291;-32
2023/07/08 06:31:35;;;;;;;9.18;2.97;;;;;;;25.53;42.25;101756.56;5021000;28;20080;-31
2023/07/08 06:34:02;;;;;;;6.22;3.30;;;;;;;25.53;42.11;101751.97;5005072;28;20103;-37
2023/07/08 06:36:28;;;;;;;6.43;2.70;;;;;;;25.52;42.45;101750.28;5039598;28;20105;-31
2023/07/08 06:38:55;;;;;;;17.20;10.38;;;;;;;25.53;42.33;101751.13;5016034;28;20107;-32
2023/07/08 06:41:22;;;;;;;18.80;11.18;;;;;;;25.53;42.24;101757.41;5020012;28;20057;-31
2023/07/08 06:43:48;;;;;;;18.48;11.60;;;;;;;25.53;42.24;101754.69;5028821;28;20351;-31
2023/07/08 06:46:15;;;;;;;18.50;12.25;;;;;;;25.54;42.39;101756.38;5031658;28;20507;-32
2023/07/08 06:48:42;;;;;;;15.90;11.05;;;;;;;25.53;42.60;101757.41;5031811;28;20045;-31
2023/07/08 06:51:09;;;;;;;20.83;10.82;;;;;;;25.54;42.55;101748.22;5031916;28;20092;-31
2023/07/08 06:53:35;;;;;;;15.48;10.02;;;;;;;25.54;42.47;101745.53;5030786;28;20041;-31
2023/07/08 06:56:02;;;;;;;13.25;8.63;;;;;;;25.55;42.40;101743.66;5006283;28;20183;-31
2023/07/08 06:58:29;;;;;;;15.25;8.63;;;;;;;25.55;42.15;101751.78;5029956;28;20068;-31
2023/07/08 07:00:55;;;;;;;13.93;8.55;;;;;;;25.55;42.45;101743.66;5028171;28;20053;-35
2023/07/08 07:03:24;;;;;;;10.30;7.30;;;;;;;25.54;41.94;101740.09;5018576;28;20100;-31
2023/07/08 07:05:51;;;;;;;11.57;7.35;;;;;;;25.56;42.33;101750.75;5017755;28;20083;-32
2023/07/08 07:08:17;;;;;;;10.38;7.35;;;;;;;25.55;42.04;101747.19;5013830;28;20088;-31
2023/07/08 07:10:44;;;;;;;11.05;6.55;;;;;;;25.56;42.24;101745.31;5013352;28;20081;-32
2023/07/08 07:13:11;;;;;;;12.10;7.05;;;;;;;25.55;42.45;101741.78;5020091;28;20441;-32
2023/07/08 07:15:37;;;;;;;9.90;6.32;;;;;;;25.57;42.04;101738.91;4985014;28;22402;-34
2023/07/08 07:18:04;;;;;;;11.80;6.18;;;;;;;25.56;41.91;101738.03;5034295;28;20053;-32
2023/07/08 07:20:31;;;;;;;9.55;5.30;;;;;;;25.57;42.07;101737.03;5022486;28;20044;-32
2023/07/08 07:22:58;;;;;;;9.52;5.40;;;;;;;25.56;42.65;101732.59;5012826;28;20049;-32
2023/07/08 07:25:24;;;;;;;7.47;4.80;;;;;;;25.57;42.08;101731.59;5014341;28;20358;-33
2023/07/08 07:27:51;;;;;;;9.20;5.00;;;;;;;25.59;42.59;101728.69;5019403;28;20357;-32
2023/07/08 07:30:18;;;;;;;7.30;4.57;;;;;;;25.59;42.30;101726.81;5018085;28;20053;-32
2023/07/08 07:32:45;;;;;;;6.55;4.20;;;;;;;25.59;42.20;101731.41;5015632;28;20348;-32
2023/07/08 07:35:14;;;;;;;8.82;4.30;;;;;;;25.59;41.99;101729.53;4986426;28;20693;-32
2023/07/08 07:37:42;;;;;;;6.72;4.10;;;;;;;25.60;41.90;101725.78;5026088;28;20062;-32
2023/07/08 07:40:15;;;;;;;6.38;3.67;;;;;;;25.60;41.80;101722.22;5027416;28;20053;-33
2023/07/08 07:42:43;;;;;;;6.28;3.72;;;;;;;25.61;41.86;101729.34;5018881;28;20057;-32
2023/07/08 07:45:11;;;;;;;6.68;3.85;;;;;;;25.62;41.53;101732.91;5021040;28;20839;-33
2023/07/08 07:47:38;;;;;;;8.18;4.75;;;;;;;25.60;41.75;101725.78;5018238;28;20060;-32
2023/07/08 07:50:07;;;;;;;16.35;10.38;;;;;;;25.62;41.83;101724.75;5031101;28;20069;-33
2023/07/08 07:52:34;;;;;;;16.73;9.73;;;;;;;25.63;42.18;101724.56;5030538;28;20484;-32
2023/07/08 07:55:01;;;;;;;17.13;8.80;;;;;;;25.62;41.96;101722.88;4983650;28;20069;-33
2023/07/08 07:57:28;;;;;;;10.15;6.40;;;;;;;25.63;41.99;101727.28;5019431;28;20505;-32
2023/07/08 07:59:55;;;;;;;10.82;6.13;;;;;;;25.63;41.76;101727.28;5020777;28;20412;-32
2023/07/08 08:02:21;;;;;;;8.35;5.80;;;;;;;25.65;41.09;101724.38;5021009;28;20157;-33
2023/07/08 08:04:48;;;;;;;11.02;5.60;;;;;;;25.65;41.82;101724.38;5016005;28;20427;-33
2023/07/08 08:07:14;;;;;;;8.88;4.68;;;;;;;25.66;41.68;101718.78;5007917;28;20041;-33
2023/07/08 08:09:41;;;;;;;7.75;4.68;;;;;;;25.66;41.15;101710.63;5016076;28;20056;-33
2023/07/08 08:12:10;;;;;;;9.05;4.80;;;;;;;25.67;41.32;101708.75;5015826;28;20349;-32
2023/07/08 08:14:38;;;;;;;6.25;4.50;;;;;;;25.67;41.01;101709.59;5015020;28;20512;-33
2023/07/08 08:17:05;;;;;;;7.00;3.88;;;;;;;25.69;41.30;101714.84;4989619;28;20064;-32
2023/07/08 08:19:32;;;;;;;6.57;3.90;;;;;;;25.69;41.38;101720.25;5024781;28;20472;-32
2023/07/08 08:21:59;;;;;;;6.82;3.60;;;;;;;25.70;41.19;101724.69;5027602;28;20053;-32
2023/07/08 08:24:25;;;;;;;8.48;5.15;;;;;;;25.71;41.29;101729.09;5029343;28;20144;-32
2023/07/08 08:26:54;;;;;;;6.40;4.05;;;;;;;25.72;41.21;101730.78;5028905;28;20057;-34
2023/07/08 08:29:21;;;;;;;7.28;4.47;;;;;;;25.71;41.35;101735.38;5025955;28;20144;-32
2023/07/08 08:31:47;;;;;;;6.40;4.00;;;;;;;25.72;41.26;101734.31;5027893;28;20136;-32
2023/07/08 08:34:14;;;;;;;6.57;4.57;;;;;;;25.72;41.16;101733.50;5029452;28;20144;-32
2023/07/08 08:36:40;;;;;;;6.13;4.88;;;;;;;25.73;41.17;101740.59;4984330;28;20068;-33
2023/07/08 08:39:07;;;;;;;7.70;4.05;;;;;;;25.73;40.96;101735.16;5025770;28;20520;-33
2023/07/08 08:41:38;;;;;;;6.47;3.72;;;;;;;25.74;41.29;101734.16;5029641;28;20081;-33
2023/07/08 08:44:09;;;;;;;5.70;3.83;;;;;;;25.74;41.29;101735.00;5028573;28;20049;-33
2023/07/08 08:46:45;;;;;;;6.05;3.67;;;;;;;25.76;40.93;101746.50;5033005;28;20048;-33
2023/07/08 08:49:37;;;;;;;7.03;3.95;;;;;;;25.76;41.11;101742.94;5025859;28;20508;-32
2023/07/08 08:52:04;;;;;;;6.10;3.38;;;;;;;25.78;41.02;101744.50;5027872;28;20123;-32
2023/07/08 08:54:31;;;;;;;7.10;3.35;;;;;;;25.81;40.99;101749.56;5016063;28;20279;-32
2023/07/08 08:57:07;;;;;;;7.30;3.80;;;;;;;25.82;40.98;101753.13;4988757;28;20106;-32
2023/07/08 08:59:50;;;;;;;5.72;3.33;;;;;;;25.83;40.76;101746.66;5014469;28;20080;-32
2023/07/08 09:02:48;;;;;;;7.78;4.28;;;;;;;25.84;40.98;101756.50;5011158;28;20433;-32
2023/07/08 09:05:15;;;;;;;6.68;4.53;;;;;;;25.87;41.17;101745.25;5016717;28;20046;-33
2023/07/08 09:07:56;;;;;;;9.40;4.05;;;;;;;25.89;40.71;101740.50;5009752;28;20150;-32
2023/07/08 09:10:39;;;;;;;6.00;4.03;;;;;;;25.91;40.90;101738.44;5028360;28;20084;-32
2023/07/08 09:13:11;;;;;;;6.70;4.00;;;;;;;25.94;40.83;101731.81;5016590;28;20056;-33
2023/07/08 09:15:38;;;;;;;7.40;3.72;;;;;;;25.95;40.92;101736.19;4980089;28;20155;-34
2023/07/08 09:18:20;;;;;;;7.15;3.90;;;;;;;25.98;40.76;101733.13;5008880;28;20065;-34
2023/07/08 09:20:47;;;;;;;6.72;3.85;;;;;;;26.00;40.76;101725.63;5013556;28;20577;-32
2023/07/08 09:23:38;;;;;;;5.95;3.80;;;;;;;26.02;40.74;101734.44;5007536;28;20761;-33
2023/07/08 09:26:16;;;;;;;7.28;3.92;;;;;;;26.03;40.70;101728.81;5013393;28;20057;-32
2023/07/08 09:28:44;;;;;;;9.10;4.80;;;;;;;26.06;40.80;101731.16;5018333;28;20049;-33
2023/07/08 09:31:32;;;;;;;5.88;3.17;;;;;;;26.07;41.01;101732.84;5020475;28;20109;-33
2023/07/08 09:36:52;;;;;;;6.43;3.63;;;;;;;26.19;40.91;101735.09;4958112;28;21282;-32
2023/07/08 09:39:20;;;;;;;7.97;3.55;;;;;;;26.23;41.09;101731.81;5043377;28;20052;-32
2023/07/08 09:41:48;;;;;;;8.15;3.88;;;;;;;26.28;41.08;101733.97;5033868;28;20449;-33
2023/07/08 09:44:29;;;;;;;8.10;3.88;;;;;;;26.32;41.07;101733.41;5030043;28;20053;-32
2023/07/08 09:46:58;;;;;;;15.93;4.45;;;;;;;26.38;41.00;101737.28;5034855;28;20049;-33
2023/07/08 09:49:34;;;;;;;6.05;3.72;;;;;;;26.42;40.96;101735.88;5036883;28;20056;-33
2023/07/08 09:52:04;;;;;;;6.20;3.58;;;;;;;26.46;41.00;101728.22;5032950;28;20076;-33
2023/07/08 09:54:32;;;;;;;6.05;3.67;;;;;;;26.50;41.03;101734.97;5022290;28;20049;-37
2023/07/08 09:57:12;;;;;;;5.78;3.88;;;;;;;26.53;41.13;101742.72;5020343;28;20059;-32
2023/07/08 09:59:45;;;;;;;5.63;3.75;;;;;;;26.56;40.84;101748.63;5030000;28;20150;-32
2023/07/08 10:02:39;;;;;;;6.60;4.13;;;;;;;26.61;41.04;101744.50;5033665;28;20068;-31
2023/07/08 10:05:26;;;;;;;5.90;3.58;;;;;;;26.64;41.13;101747.69;5037177;28;20052;-32
2023/07/08 10:07:56;;;;;;;7.25;3.88;;;;;;;26.68;40.68;101735.41;5035350;28;20473;-30
2023/07/08 10:10:29;;;;;;;6.07;3.83;;;;;;;26.72;40.58;101733.97;5030919;28;20064;-30
2023/07/08 10:13:01;;;;;;;8.57;3.78;;;;;;;26.77;40.70;101736.13;5037481;28;20049;-30
2023/07/08 10:15:34;;;;;;;5.68;3.60;;;;;;;26.83;40.24;101732.66;5034493;28;20070;-30
2023/07/08 10:18:01;;;;;;;5.72;3.78;;;;;;;26.88;40.57;101729.38;5036743;28;20607;-31
2023/07/08 10:21:01;;;;;;;5.53;3.70;;;;;;;26.91;40.44;101727.09;5028883;28;20049;-31
2023/07/08 10:23:54;;;;;;;9.68;4.28;;;;;;;26.93;40.12;101730.47;5025743;28;20053;-31
2023/07/08 10:26:32;;;;;;;7.28;4.30;;;;;;;26.99;40.33;101731.59;5032920;28;20049;-31
2023/07/08 10:29:39;;;;;;;8.93;3.88;;;;;;;27.00;40.43;101728.66;5033153;28;20053;-30
2023/07/08 10:32:28;;;;;;;7.10;4.22;;;;;;;27.07;40.25;101739.63;5017688;28;20656;-30
2023/07/08 10:34:54;;;;;;;6.53;4.00;;;;;;;27.13;40.23;101736.16;5034271;28;20049;-30
2023/07/08 10:37:29;;;;;;;7.55;4.07;;;;;;;27.15;40.06;101730.53;5005333;28;20195;-29
2023/07/08 10:40:05;;;;;;;6.78;4.25;;;;;;;27.18;39.60;101727.44;5031338;28;20072;-32
2023/07/08 10:42:53;;;;;;;10.88;4.88;;;;;;;27.19;39.94;101719.06;5035989;28;20497;-33
2023/07/08 10:45:23;;;;;;;5.80;4.05;;;;;;;27.23;39.87;101722.25;5034512;28;20041;-30
2023/07/08 10:48:09;;;;;;;7.75;4.45;;;;;;;27.24;39.68;101722.06;5020782;28;20077;-29
2023/07/08 10:50:55;;;;;;;8.80;4.70;;;;;;;27.27;39.13;101721.66;5021679;28;20102;-32
2023/07/08 10:53:27;;;;;;;9.18;4.18;;;;;;;27.30;39.66;101720.44;5021154;28;20059;-32
2023/07/08 10:56:01;;;;;;;11.20;5.00;;;;;;;27.33;39.89;101716.47;4976772;28;20087;-32
2023/07/08 10:59:13;;;;;;;12.52;4.78;;;;;;;27.36;39.94;101721.53;5004278;28;20129;-30
2023/07/08 11:02:01;;;;;;;6.70;4.53;;;;;;;27.41;39.77;101717.19;4957338;28;20066;-30
2023/07/08 11:04:51;;;;;;;6.95;4.53;;;;;;;27.43;39.75;101714.28;5015044;28;20052;-31
2023/07/08 11:07:35;;;;;;;6.47;4.30;;;;;;;27.46;39.85;101712.03;5017846;28;20392;-30
2023/07/08 11:10:14;;;;;;;;;;;;;;;27.49;39.82;101716.22;5021080;28;20107;-31
2023/07/08 11:12:58;;;;;;;7.45;4.70;;;;;;;27.53;40.05;101712.91;5015861;28;19978;-30
2023/07/08 11:15:35;;;;;;;7.00;4.18;;;;;;;27.55;40.12;101716.28;5019383;28;20153;-30
2023/07/08 11:18:23;;;;;;;7.15;5.03;;;;;;;27.57;39.80;101724.25;4992206;28;20054;-31
2023/07/08 11:21:31;;;;;;;5.35;3.60;;;;;;;27.61;40.53;101720.09;5016054;28;20081;-31
2023/07/08 11:24:05;;;;;;;7.22;4.20;;;;;;;27.65;40.05;101712.38;4987086;28;20152;-33
2023/07/08 11:26:44;;;;;;;6.97;4.97;;;;;;;27.68;40.17;101712.00;5019169;28;20412;-31
2023/07/08 11:29:21;;;;;;;7.65;4.53;;;;;;;27.73;39.73;101714.94;5019401;28;20376;-30
2023/07/08 11:31:50;;;;;;;7.63;4.25;;;;;;;27.75;39.68;101713.75;5019397;28;20048;-31
2023/07/08 11:34:19;;;;;;;7.82;5.00;;;;;;;27.79;40.14;101719.66;5018842;28;20106;-31
2023/07/08 11:36:48;;;;;;;6.03;3.97;;;;;;;27.83;39.47;101714.66;4988233;28;21185;-32
2023/07/08 11:39:44;;;;;;;7.95;4.30;;;;;;;27.82;40.22;101705.66;5023679;28;20134;-32
2023/07/08 11:42:32;;;;;;;5.63;3.83;;;;;;;27.87;40.31;101705.88;5018205;28;20054;-31